sensor_id;sensor_type;location;lat;lon;timestamp;P1;durP1;ratioP1;P2;durP2;ratioP2
45208;SDS011;30951;43.994;26.260;2023-03-08T00:02:12;29.90;;;14.68;;
45208;SDS011;30951;43.994;26.260;2023-03-08T00:04:38;36.83;;;20.88;;
45208;SDS011;30951;43.994;26.260;2023-03-08T00:07:03;22.80;;;12.95;;
45208;SDS011;30951;43.994;26.260;2023-03-08T00:09:29;27.98;;;14.60;;
45208;SDS011;30951;43.994;26.260;2023-03-08T00:11:54;29.05;;;15.65;;
45208;SDS011;30951;43.994;26.260;2023-03-08T00:14:20;30.25;;;16.85;;
45208;SDS011;30951;43.994;26.260;2023-03-08T00:16:46;32.08;;;18.20;;
45208;SDS011;30951;43.994;26.260;2023-03-08T00:19:12;25.60;;;14.98;;
45208;SDS011;30951;43.994;26.260;2023-03-08T00:21:38;14.55;;;9.90;;
45208;SDS011;30951;43.994;26.260;2023-03-08T00:24:04;17.02;;;10.50;;
45208;SDS011;30951;43.994;26.260;2023-03-08T00:26:29;19.92;;;10.80;;
45208;SDS011;30951;43.994;26.260;2023-03-08T00:28:55;16.75;;;10.32;;
45208;SDS011;30951;43.994;26.260;2023-03-08T00:31:20;21.65;;;10.88;;
45208;SDS011;30951;43.994;26.260;2023-03-08T00:33:46;18.73;;;10.43;;
45208;SDS011;30951;43.994;26.260;2023-03-08T00:36:12;16.10;;;9.90;;
45208;SDS011;30951;43.994;26.260;2023-03-08T00:38:39;18.55;;;10.23;;
45208;SDS011;30951;43.994;26.260;2023-03-08T00:41:05;16.90;;;10.07;;
45208;SDS011;30951;43.994;26.260;2023-03-08T00:43:30;18.05;;;9.73;;
45208;SDS011;30951;43.994;26.260;2023-03-08T00:45:56;13.88;;;9.00;;
45208;SDS011;30951;43.994;26.260;2023-03-08T00:48:22;16.60;;;9.13;;
45208;SDS011;30951;43.994;26.260;2023-03-08T00:50:47;24.05;;;13.10;;
45208;SDS011;30951;43.994;26.260;2023-03-08T00:53:13;19.58;;;11.93;;
45208;SDS011;30951;43.994;26.260;2023-03-08T00:55:39;17.83;;;9.93;;
45208;SDS011;30951;43.994;26.260;2023-03-08T00:58:10;21.77;;;10.93;;
45208;SDS011;30951;43.994;26.260;2023-03-08T01:00:36;15.55;;;10.55;;
45208;SDS011;30951;43.994;26.260;2023-03-08T01:03:01;16.23;;;10.65;;
45208;SDS011;30951;43.994;26.260;2023-03-08T01:05:28;62.40;;;24.15;;
45208;SDS011;30951;43.994;26.260;2023-03-08T01:07:54;74.45;;;27.55;;
45208;SDS011;30951;43.994;26.260;2023-03-08T01:10:19;24.55;;;11.20;;
45208;SDS011;30951;43.994;26.260;2023-03-08T01:12:45;29.30;;;13.38;;
45208;SDS011;30951;43.994;26.260;2023-03-08T01:15:11;27.02;;;13.05;;
45208;SDS011;30951;43.994;26.260;2023-03-08T01:17:36;38.92;;;14.88;;
45208;SDS011;30951;43.994;26.260;2023-03-08T01:20:02;29.05;;;12.23;;
45208;SDS011;30951;43.994;26.260;2023-03-08T01:22:29;29.63;;;12.73;;
45208;SDS011;30951;43.994;26.260;2023-03-08T01:24:54;40.45;;;15.68;;
45208;SDS011;30951;43.994;26.260;2023-03-08T01:27:20;25.40;;;11.88;;
45208;SDS011;30951;43.994;26.260;2023-03-08T01:29:45;20.75;;;10.95;;
45208;SDS011;30951;43.994;26.260;2023-03-08T01:32:11;26.27;;;11.90;;
45208;SDS011;30951;43.994;26.260;2023-03-08T01:34:36;21.60;;;9.50;;
45208;SDS011;30951;43.994;26.260;2023-03-08T01:37:02;16.92;;;10.23;;
45208;SDS011;30951;43.994;26.260;2023-03-08T01:39:28;17.17;;;10.10;;
45208;SDS011;30951;43.994;26.260;2023-03-08T01:41:53;21.05;;;11.85;;
45208;SDS011;30951;43.994;26.260;2023-03-08T01:44:19;16.23;;;9.55;;
45208;SDS011;30951;43.994;26.260;2023-03-08T01:46:46;22.92;;;12.75;;
45208;SDS011;30951;43.994;26.260;2023-03-08T01:49:23;20.90;;;12.07;;
45208;SDS011;30951;43.994;26.260;2023-03-08T01:52:08;23.90;;;12.70;;
45208;SDS011;30951;43.994;26.260;2023-03-08T01:54:39;17.48;;;10.85;;
45208;SDS011;30951;43.994;26.260;2023-03-08T01:57:08;21.02;;;11.27;;
45208;SDS011;30951;43.994;26.260;2023-03-08T01:59:38;19.52;;;10.48;;
45208;SDS011;30951;43.994;26.260;2023-03-08T02:02:04;20.83;;;11.20;;
45208;SDS011;30951;43.994;26.260;2023-03-08T02:04:30;20.05;;;10.60;;
45208;SDS011;30951;43.994;26.260;2023-03-08T02:06:55;17.92;;;9.70;;
45208;SDS011;30951;43.994;26.260;2023-03-08T02:09:21;14.77;;;9.15;;
45208;SDS011;30951;43.994;26.260;2023-03-08T02:11:47;16.63;;;9.93;;
45208;SDS011;30951;43.994;26.260;2023-03-08T02:14:12;16.60;;;9.77;;
45208;SDS011;30951;43.994;26.260;2023-03-08T02:16:38;15.23;;;10.13;;
45208;SDS011;30951;43.994;26.260;2023-03-08T02:19:05;17.83;;;9.15;;
45208;SDS011;30951;43.994;26.260;2023-03-08T02:21:35;15.00;;;9.43;;
45208;SDS011;30951;43.994;26.260;2023-03-08T02:24:20;20.33;;;10.07;;
45208;SDS011;30951;43.994;26.260;2023-03-08T02:26:47;15.98;;;9.35;;
45208;SDS011;30951;43.994;26.260;2023-03-08T02:29:14;20.38;;;11.45;;
45208;SDS011;30951;43.994;26.260;2023-03-08T02:31:39;20.60;;;11.40;;
45208;SDS011;30951;43.994;26.260;2023-03-08T02:34:05;15.43;;;10.52;;
45208;SDS011;30951;43.994;26.260;2023-03-08T02:36:30;16.67;;;10.57;;
45208;SDS011;30951;43.994;26.260;2023-03-08T02:38:56;19.48;;;11.63;;
45208;SDS011;30951;43.994;26.260;2023-03-08T02:41:21;22.42;;;10.73;;
45208;SDS011;30951;43.994;26.260;2023-03-08T02:43:47;14.68;;;10.10;;
45208;SDS011;30951;43.994;26.260;2023-03-08T02:46:13;17.67;;;9.95;;
45208;SDS011;30951;43.994;26.260;2023-03-08T02:48:38;18.02;;;10.93;;
45208;SDS011;30951;43.994;26.260;2023-03-08T02:51:04;20.40;;;10.40;;
45208;SDS011;30951;43.994;26.260;2023-03-08T02:53:29;16.35;;;9.85;;
45208;SDS011;30951;43.994;26.260;2023-03-08T02:55:55;16.98;;;9.68;;
45208;SDS011;30951;43.994;26.260;2023-03-08T02:58:20;20.98;;;10.32;;
45208;SDS011;30951;43.994;26.260;2023-03-08T03:00:46;21.63;;;11.52;;
45208;SDS011;30951;43.994;26.260;2023-03-08T03:03:11;19.80;;;9.95;;
45208;SDS011;30951;43.994;26.260;2023-03-08T03:05:43;17.33;;;9.73;;
45208;SDS011;30951;43.994;26.260;2023-03-08T03:08:09;18.55;;;9.40;;
45208;SDS011;30951;43.994;26.260;2023-03-08T03:10:36;17.40;;;9.50;;
45208;SDS011;30951;43.994;26.260;2023-03-08T03:13:02;11.60;;;8.13;;
45208;SDS011;30951;43.994;26.260;2023-03-08T03:15:28;14.40;;;8.00;;
45208;SDS011;30951;43.994;26.260;2023-03-08T03:17:55;17.77;;;8.30;;
45208;SDS011;30951;43.994;26.260;2023-03-08T03:20:21;15.43;;;8.68;;
45208;SDS011;30951;43.994;26.260;2023-03-08T03:22:46;14.35;;;9.65;;
45208;SDS011;30951;43.994;26.260;2023-03-08T03:25:12;17.15;;;9.55;;
45208;SDS011;30951;43.994;26.260;2023-03-08T03:27:38;16.13;;;8.25;;
45208;SDS011;30951;43.994;26.260;2023-03-08T03:30:04;16.08;;;9.02;;
45208;SDS011;30951;43.994;26.260;2023-03-08T03:32:31;15.55;;;8.98;;
45208;SDS011;30951;43.994;26.260;2023-03-08T03:34:56;18.17;;;8.98;;
45208;SDS011;30951;43.994;26.260;2023-03-08T03:37:22;21.70;;;9.27;;
45208;SDS011;30951;43.994;26.260;2023-03-08T03:39:47;17.45;;;9.43;;
45208;SDS011;30951;43.994;26.260;2023-03-08T03:42:13;13.05;;;8.57;;
45208;SDS011;30951;43.994;26.260;2023-03-08T03:44:39;13.55;;;8.88;;
45208;SDS011;30951;43.994;26.260;2023-03-08T03:47:04;14.60;;;7.97;;
45208;SDS011;30951;43.994;26.260;2023-03-08T03:49:30;18.38;;;8.77;;
45208;SDS011;30951;43.994;26.260;2023-03-08T03:51:56;14.70;;;9.18;;
45208;SDS011;30951;43.994;26.260;2023-03-08T03:54:21;17.17;;;7.72;;
45208;SDS011;30951;43.994;26.260;2023-03-08T03:56:47;14.93;;;8.23;;
45208;SDS011;30951;43.994;26.260;2023-03-08T03:59:12;12.80;;;8.10;;
45208;SDS011;30951;43.994;26.260;2023-03-08T04:01:38;16.95;;;8.02;;
45208;SDS011;30951;43.994;26.260;2023-03-08T04:04:03;10.95;;;7.80;;
45208;SDS011;30951;43.994;26.260;2023-03-08T04:06:30;10.73;;;7.30;;
45208;SDS011;30951;43.994;26.260;2023-03-08T04:08:58;14.00;;;8.88;;
45208;SDS011;30951;43.994;26.260;2023-03-08T04:11:26;12.75;;;8.25;;
45208;SDS011;30951;43.994;26.260;2023-03-08T04:13:53;11.88;;;8.65;;
45208;SDS011;30951;43.994;26.260;2023-03-08T04:16:20;24.98;;;9.07;;
45208;SDS011;30951;43.994;26.260;2023-03-08T04:18:47;17.95;;;8.00;;
45208;SDS011;30951;43.994;26.260;2023-03-08T04:21:16;14.93;;;8.65;;
45208;SDS011;30951;43.994;26.260;2023-03-08T04:23:42;14.18;;;7.60;;
45208;SDS011;30951;43.994;26.260;2023-03-08T04:26:07;19.60;;;8.07;;
45208;SDS011;30951;43.994;26.260;2023-03-08T04:28:33;12.45;;;7.88;;
45208;SDS011;30951;43.994;26.260;2023-03-08T04:30:59;15.70;;;8.05;;
45208;SDS011;30951;43.994;26.260;2023-03-08T04:33:25;13.13;;;7.97;;
45208;SDS011;30951;43.994;26.260;2023-03-08T04:35:51;11.98;;;7.43;;
45208;SDS011;30951;43.994;26.260;2023-03-08T04:38:17;15.10;;;7.90;;
45208;SDS011;30951;43.994;26.260;2023-03-08T04:40:49;12.80;;;7.95;;
45208;SDS011;30951;43.994;26.260;2023-03-08T04:43:34;19.42;;;8.88;;
45208;SDS011;30951;43.994;26.260;2023-03-08T04:46:00;19.63;;;9.68;;
45208;SDS011;30951;43.994;26.260;2023-03-08T04:48:26;16.45;;;8.30;;
45208;SDS011;30951;43.994;26.260;2023-03-08T04:50:56;14.05;;;8.52;;
45208;SDS011;30951;43.994;26.260;2023-03-08T04:53:23;17.45;;;8.90;;
45208;SDS011;30951;43.994;26.260;2023-03-08T04:55:49;17.77;;;9.07;;
45208;SDS011;30951;43.994;26.260;2023-03-08T04:58:14;18.95;;;9.85;;
45208;SDS011;30951;43.994;26.260;2023-03-08T05:00:40;22.30;;;10.32;;
45208;SDS011;30951;43.994;26.260;2023-03-08T05:03:06;38.42;;;17.38;;
45208;SDS011;30951;43.994;26.260;2023-03-08T05:05:32;35.05;;;16.38;;
45208;SDS011;30951;43.994;26.260;2023-03-08T05:07:57;80.13;;;35.20;;
45208;SDS011;30951;43.994;26.260;2023-03-08T05:10:32;56.03;;;24.08;;
45208;SDS011;30951;43.994;26.260;2023-03-08T05:12:57;52.47;;;23.35;;
45208;SDS011;30951;43.994;26.260;2023-03-08T05:15:23;32.75;;;16.58;;
45208;SDS011;30951;43.994;26.260;2023-03-08T05:17:49;36.67;;;16.17;;
45208;SDS011;30951;43.994;26.260;2023-03-08T05:20:15;36.05;;;15.38;;
45208;SDS011;30951;43.994;26.260;2023-03-08T05:22:41;27.38;;;12.40;;
45208;SDS011;30951;43.994;26.260;2023-03-08T05:25:06;22.48;;;13.45;;
45208;SDS011;30951;43.994;26.260;2023-03-08T05:27:33;26.05;;;13.77;;
45208;SDS011;30951;43.994;26.260;2023-03-08T05:29:59;29.48;;;16.38;;
45208;SDS011;30951;43.994;26.260;2023-03-08T05:32:25;30.95;;;17.25;;
45208;SDS011;30951;43.994;26.260;2023-03-08T05:34:51;42.28;;;21.45;;
45208;SDS011;30951;43.994;26.260;2023-03-08T05:37:17;51.42;;;22.85;;
45208;SDS011;30951;43.994;26.260;2023-03-08T05:39:42;67.07;;;33.10;;
45208;SDS011;30951;43.994;26.260;2023-03-08T05:42:08;58.25;;;29.67;;
45208;SDS011;30951;43.994;26.260;2023-03-08T05:44:33;60.40;;;30.58;;
45208;SDS011;30951;43.994;26.260;2023-03-08T05:47:00;47.97;;;24.52;;
45208;SDS011;30951;43.994;26.260;2023-03-08T05:49:25;30.17;;;16.10;;
45208;SDS011;30951;43.994;26.260;2023-03-08T05:51:51;26.17;;;13.00;;
45208;SDS011;30951;43.994;26.260;2023-03-08T05:54:17;28.23;;;13.50;;
45208;SDS011;30951;43.994;26.260;2023-03-08T05:56:43;21.02;;;11.35;;
45208;SDS011;30951;43.994;26.260;2023-03-08T05:59:08;21.27;;;12.02;;
45208;SDS011;30951;43.994;26.260;2023-03-08T06:01:34;19.08;;;10.75;;
45208;SDS011;30951;43.994;26.260;2023-03-08T06:03:59;24.05;;;12.40;;
45208;SDS011;30951;43.994;26.260;2023-03-08T06:06:25;19.73;;;11.30;;
45208;SDS011;30951;43.994;26.260;2023-03-08T06:08:51;19.73;;;11.95;;
45208;SDS011;30951;43.994;26.260;2023-03-08T06:11:18;26.52;;;14.70;;
45208;SDS011;30951;43.994;26.260;2023-03-08T06:13:43;33.45;;;13.38;;
45208;SDS011;30951;43.994;26.260;2023-03-08T06:16:09;22.13;;;11.98;;
45208;SDS011;30951;43.994;26.260;2023-03-08T06:18:35;17.35;;;9.65;;
45208;SDS011;30951;43.994;26.260;2023-03-08T06:21:06;17.75;;;10.32;;
45208;SDS011;30951;43.994;26.260;2023-03-08T06:23:32;17.27;;;9.50;;
45208;SDS011;30951;43.994;26.260;2023-03-08T06:25:59;17.02;;;10.00;;
45208;SDS011;30951;43.994;26.260;2023-03-08T06:28:25;14.88;;;9.43;;
45208;SDS011;30951;43.994;26.260;2023-03-08T06:30:51;21.20;;;10.75;;
45208;SDS011;30951;43.994;26.260;2023-03-08T06:33:18;20.13;;;10.77;;
45208;SDS011;30951;43.994;26.260;2023-03-08T06:38:34;22.13;;;10.27;;
45208;SDS011;30951;43.994;26.260;2023-03-08T06:41:01;22.23;;;10.68;;
45208;SDS011;30951;43.994;26.260;2023-03-08T06:43:26;18.20;;;10.90;;
45208;SDS011;30951;43.994;26.260;2023-03-08T06:45:52;18.02;;;10.65;;
45208;SDS011;30951;43.994;26.260;2023-03-08T06:48:18;20.13;;;9.80;;
45208;SDS011;30951;43.994;26.260;2023-03-08T06:50:43;18.13;;;10.90;;
45208;SDS011;30951;43.994;26.260;2023-03-08T06:53:09;15.45;;;9.35;;
45208;SDS011;30951;43.994;26.260;2023-03-08T06:55:35;16.05;;;8.70;;
45208;SDS011;30951;43.994;26.260;2023-03-08T06:58:01;15.32;;;9.13;;
45208;SDS011;30951;43.994;26.260;2023-03-08T07:00:27;17.48;;;9.27;;
45208;SDS011;30951;43.994;26.260;2023-03-08T07:02:52;16.80;;;9.20;;
45208;SDS011;30951;43.994;26.260;2023-03-08T07:05:19;16.33;;;8.25;;
45208;SDS011;30951;43.994;26.260;2023-03-08T07:07:44;15.18;;;8.13;;
45208;SDS011;30951;43.994;26.260;2023-03-08T07:10:10;13.27;;;7.55;;
45208;SDS011;30951;43.994;26.260;2023-03-08T07:12:39;14.35;;;6.10;;
45208;SDS011;30951;43.994;26.260;2023-03-08T07:15:10;12.90;;;6.95;;
45208;SDS011;30951;43.994;26.260;2023-03-08T07:17:38;10.65;;;5.47;;
45208;SDS011;30951;43.994;26.260;2023-03-08T07:20:04;24.77;;;7.18;;
45208;SDS011;30951;43.994;26.260;2023-03-08T07:22:30;11.05;;;4.75;;
45208;SDS011;30951;43.994;26.260;2023-03-08T07:24:56;10.80;;;5.32;;
45208;SDS011;30951;43.994;26.260;2023-03-08T07:27:21;9.25;;;5.05;;
45208;SDS011;30951;43.994;26.260;2023-03-08T07:29:47;11.77;;;4.80;;
45208;SDS011;30951;43.994;26.260;2023-03-08T07:32:12;6.97;;;4.90;;
45208;SDS011;30951;43.994;26.260;2023-03-08T07:34:38;7.60;;;4.80;;
45208;SDS011;30951;43.994;26.260;2023-03-08T07:37:03;6.13;;;4.50;;
45208;SDS011;30951;43.994;26.260;2023-03-08T07:39:29;14.35;;;5.15;;
45208;SDS011;30951;43.994;26.260;2023-03-08T07:41:54;17.15;;;12.02;;
45208;SDS011;30951;43.994;26.260;2023-03-08T07:44:20;11.63;;;5.30;;
45208;SDS011;30951;43.994;26.260;2023-03-08T07:46:45;8.95;;;4.88;;
45208;SDS011;30951;43.994;26.260;2023-03-08T07:49:11;7.95;;;4.65;;
45208;SDS011;30951;43.994;26.260;2023-03-08T07:51:36;14.18;;;5.63;;
45208;SDS011;30951;43.994;26.260;2023-03-08T07:54:02;8.77;;;5.18;;
45208;SDS011;30951;43.994;26.260;2023-03-08T07:56:28;14.38;;;4.93;;
45208;SDS011;30951;43.994;26.260;2023-03-08T07:58:57;10.05;;;5.32;;
45208;SDS011;30951;43.994;26.260;2023-03-08T08:01:22;11.60;;;6.07;;
45208;SDS011;30951;43.994;26.260;2023-03-08T08:03:48;6.97;;;4.75;;
45208;SDS011;30951;43.994;26.260;2023-03-08T08:06:14;8.07;;;4.82;;
45208;SDS011;30951;43.994;26.260;2023-03-08T08:08:39;10.05;;;4.90;;
45208;SDS011;30951;43.994;26.260;2023-03-08T08:11:09;10.38;;;5.22;;
45208;SDS011;30951;43.994;26.260;2023-03-08T08:13:38;7.15;;;4.90;;
45208;SDS011;30951;43.994;26.260;2023-03-08T08:16:03;7.68;;;5.03;;
45208;SDS011;30951;43.994;26.260;2023-03-08T08:18:31;7.97;;;4.40;;
45208;SDS011;30951;43.994;26.260;2023-03-08T08:21:02;9.07;;;5.10;;
45208;SDS011;30951;43.994;26.260;2023-03-08T08:23:29;11.60;;;5.50;;
45208;SDS011;30951;43.994;26.260;2023-03-08T08:25:55;8.05;;;5.00;;
45208;SDS011;30951;43.994;26.260;2023-03-08T08:28:21;10.70;;;4.60;;
45208;SDS011;30951;43.994;26.260;2023-03-08T08:33:43;8.77;;;5.18;;
45208;SDS011;30951;43.994;26.260;2023-03-08T08:36:16;10.45;;;4.70;;
45208;SDS011;30951;43.994;26.260;2023-03-08T08:38:43;8.25;;;5.10;;
45208;SDS011;30951;43.994;26.260;2023-03-08T08:41:10;10.85;;;5.15;;
45208;SDS011;30951;43.994;26.260;2023-03-08T08:43:36;8.57;;;5.18;;
45208;SDS011;30951;43.994;26.260;2023-03-08T08:46:03;10.13;;;4.72;;
45208;SDS011;30951;43.994;26.260;2023-03-08T08:48:29;6.82;;;5.25;;
45208;SDS011;30951;43.994;26.260;2023-03-08T08:50:57;10.77;;;4.90;;
45208;SDS011;30951;43.994;26.260;2023-03-08T08:53:22;9.32;;;4.50;;
45208;SDS011;30951;43.994;26.260;2023-03-08T08:55:48;11.13;;;4.82;;
45208;SDS011;30951;43.994;26.260;2023-03-08T08:58:13;7.63;;;4.40;;
45208;SDS011;30951;43.994;26.260;2023-03-08T09:00:39;12.82;;;4.43;;
45208;SDS011;30951;43.994;26.260;2023-03-08T09:03:05;7.95;;;4.13;;
45208;SDS011;30951;43.994;26.260;2023-03-08T09:05:31;6.47;;;3.90;;
45208;SDS011;30951;43.994;26.260;2023-03-08T09:07:58;5.90;;;3.67;;
45208;SDS011;30951;43.994;26.260;2023-03-08T09:10:26;6.93;;;3.75;;
45208;SDS011;30951;43.994;26.260;2023-03-08T09:12:52;6.78;;;4.35;;
45208;SDS011;30951;43.994;26.260;2023-03-08T09:15:18;5.88;;;3.88;;
45208;SDS011;30951;43.994;26.260;2023-03-08T09:17:46;8.63;;;3.38;;
45208;SDS011;30951;43.994;26.260;2023-03-08T09:20:12;6.30;;;3.88;;
45208;SDS011;30951;43.994;26.260;2023-03-08T09:22:37;3.88;;;2.80;;
45208;SDS011;30951;43.994;26.260;2023-03-08T09:25:04;6.45;;;3.00;;
45208;SDS011;30951;43.994;26.260;2023-03-08T09:27:30;4.53;;;2.83;;
45208;SDS011;30951;43.994;26.260;2023-03-08T09:29:55;5.13;;;3.70;;
45208;SDS011;30951;43.994;26.260;2023-03-08T09:32:22;6.80;;;3.60;;
45208;SDS011;30951;43.994;26.260;2023-03-08T09:34:48;6.78;;;3.42;;
45208;SDS011;30951;43.994;26.260;2023-03-08T09:37:13;7.40;;;3.60;;
45208;SDS011;30951;43.994;26.260;2023-03-08T09:39:39;8.48;;;3.22;;
45208;SDS011;30951;43.994;26.260;2023-03-08T09:42:04;5.07;;;3.08;;
45208;SDS011;30951;43.994;26.260;2023-03-08T09:49:54;4.65;;;2.97;;
45208;SDS011;30951;43.994;26.260;2023-03-08T09:52:57;4.10;;;2.70;;
45208;SDS011;30951;43.994;26.260;2023-03-08T09:55:23;5.75;;;3.05;;
45208;SDS011;30951;43.994;26.260;2023-03-08T09:57:57;5.28;;;2.67;;
45208;SDS011;30951;43.994;26.260;2023-03-08T10:00:36;5.03;;;2.60;;
45208;SDS011;30951;43.994;26.260;2023-03-08T10:05:34;5.72;;;2.47;;
45208;SDS011;30951;43.994;26.260;2023-03-08T10:08:11;3.80;;;2.45;;
45208;SDS011;30951;43.994;26.260;2023-03-08T10:16:40;7.20;;;3.80;;
45208;SDS011;30951;43.994;26.260;2023-03-08T10:21:21;3.78;;;2.63;;
45208;SDS011;30951;43.994;26.260;2023-03-08T10:23:51;5.32;;;3.10;;
45208;SDS011;30951;43.994;26.260;2023-03-08T10:26:24;4.03;;;2.63;;
45208;SDS011;30951;43.994;26.260;2023-03-08T10:28:50;3.20;;;2.58;;
45208;SDS011;30951;43.994;26.260;2023-03-08T10:31:17;7.50;;;3.83;;
45208;SDS011;30951;43.994;26.260;2023-03-08T10:33:43;9.18;;;3.95;;
45208;SDS011;30951;43.994;26.260;2023-03-08T10:36:17;17.35;;;8.20;;
45208;SDS011;30951;43.994;26.260;2023-03-08T10:38:57;8.77;;;4.05;;
45208;SDS011;30951;43.994;26.260;2023-03-08T10:41:31;11.02;;;4.30;;
45208;SDS011;30951;43.994;26.260;2023-03-08T10:44:02;11.30;;;3.72;;
45208;SDS011;30951;43.994;26.260;2023-03-08T10:46:28;6.82;;;3.22;;
45208;SDS011;30951;43.994;26.260;2023-03-08T10:49:08;9.55;;;3.70;;
45208;SDS011;30951;43.994;26.260;2023-03-08T10:51:40;6.13;;;3.08;;
45208;SDS011;30951;43.994;26.260;2023-03-08T10:54:20;2.50;;;1.95;;
45208;SDS011;30951;43.994;26.260;2023-03-08T10:56:56;2.78;;;1.83;;
45208;SDS011;30951;43.994;26.260;2023-03-08T10:59:28;4.47;;;2.35;;
45208;SDS011;30951;43.994;26.260;2023-03-08T11:02:14;4.15;;;2.35;;
45208;SDS011;30951;43.994;26.260;2023-03-08T11:04:49;5.05;;;2.33;;
45208;SDS011;30951;43.994;26.260;2023-03-08T11:07:33;5.63;;;2.08;;
45208;SDS011;30951;43.994;26.260;2023-03-08T11:10:03;4.82;;;2.33;;
45208;SDS011;30951;43.994;26.260;2023-03-08T11:12:33;6.28;;;2.30;;
45208;SDS011;30951;43.994;26.260;2023-03-08T11:14:59;5.65;;;2.40;;
45208;SDS011;30951;43.994;26.260;2023-03-08T11:17:35;4.03;;;1.77;;
45208;SDS011;30951;43.994;26.260;2023-03-08T11:20:19;4.25;;;2.70;;
45208;SDS011;30951;43.994;26.260;2023-03-08T11:22:59;5.20;;;2.63;;
45208;SDS011;30951;43.994;26.260;2023-03-08T11:37:04;3.75;;;2.13;;
45208;SDS011;30951;43.994;26.260;2023-03-08T11:45:01;4.43;;;2.40;;
45208;SDS011;30951;43.994;26.260;2023-03-08T11:47:46;6.25;;;2.22;;
45208;SDS011;30951;43.994;26.260;2023-03-08T11:50:21;3.50;;;1.95;;
45208;SDS011;30951;43.994;26.260;2023-03-08T11:53:08;3.58;;;1.55;;
45208;SDS011;30951;43.994;26.260;2023-03-08T11:58:23;5.43;;;1.88;;
45208;SDS011;30951;43.994;26.260;2023-03-08T12:00:54;4.10;;;1.83;;
45208;SDS011;30951;43.994;26.260;2023-03-08T12:05:54;1.92;;;1.45;;
45208;SDS011;30951;43.994;26.260;2023-03-08T12:08:23;3.92;;;1.58;;
45208;SDS011;30951;43.994;26.260;2023-03-08T12:10:54;3.88;;;1.55;;
45208;SDS011;30951;43.994;26.260;2023-03-08T12:13:38;2.28;;;1.40;;
45208;SDS011;30951;43.994;26.260;2023-03-08T12:21:51;3.95;;;1.38;;
45208;SDS011;30951;43.994;26.260;2023-03-08T12:32:15;4.95;;;1.95;;
45208;SDS011;30951;43.994;26.260;2023-03-08T12:34:42;5.68;;;1.65;;
45208;SDS011;30951;43.994;26.260;2023-03-08T12:37:20;3.58;;;1.27;;
45208;SDS011;30951;43.994;26.260;2023-03-08T12:40:00;2.65;;;1.33;;
45208;SDS011;30951;43.994;26.260;2023-03-08T12:56:18;5.72;;;1.17;;
45208;SDS011;30951;43.994;26.260;2023-03-08T12:58:55;4.43;;;1.30;;
45208;SDS011;30951;43.994;26.260;2023-03-08T13:06:57;2.72;;;1.25;;
45208;SDS011;30951;43.994;26.260;2023-03-08T13:09:29;5.97;;;2.05;;
45208;SDS011;30951;43.994;26.260;2023-03-08T13:12:10;4.82;;;1.10;;
45208;SDS011;30951;43.994;26.260;2023-03-08T13:14:41;3.83;;;1.75;;
45208;SDS011;30951;43.994;26.260;2023-03-08T13:22:43;2.72;;;1.25;;
45208;SDS011;30951;43.994;26.260;2023-03-08T13:25:17;3.00;;;1.63;;
45208;SDS011;30951;43.994;26.260;2023-03-08T13:28:04;3.22;;;1.30;;
45208;SDS011;30951;43.994;26.260;2023-03-08T13:30:35;3.03;;;1.45;;
45208;SDS011;30951;43.994;26.260;2023-03-08T13:35:38;5.07;;;1.45;;
45208;SDS011;30951;43.994;26.260;2023-03-08T13:38:04;6.75;;;2.30;;
45208;SDS011;30951;43.994;26.260;2023-03-08T13:40:29;5.47;;;1.73;;
45208;SDS011;30951;43.994;26.260;2023-03-08T13:43:04;2.75;;;1.58;;
45208;SDS011;30951;43.994;26.260;2023-03-08T13:45:32;3.38;;;1.98;;
45208;SDS011;30951;43.994;26.260;2023-03-08T13:47:59;4.03;;;1.38;;
45208;SDS011;30951;43.994;26.260;2023-03-08T13:50:32;5.28;;;1.98;;
45208;SDS011;30951;43.994;26.260;2023-03-08T13:52:59;4.38;;;2.15;;
45208;SDS011;30951;43.994;26.260;2023-03-08T13:55:33;5.10;;;1.80;;
45208;SDS011;30951;43.994;26.260;2023-03-08T13:58:00;5.22;;;1.60;;
45208;SDS011;30951;43.994;26.260;2023-03-08T14:00:27;4.18;;;1.50;;
45208;SDS011;30951;43.994;26.260;2023-03-08T14:02:55;4.40;;;1.52;;
45208;SDS011;30951;43.994;26.260;2023-03-08T14:05:26;6.57;;;1.42;;
45208;SDS011;30951;43.994;26.260;2023-03-08T14:10:22;4.70;;;1.80;;
45208;SDS011;30951;43.994;26.260;2023-03-08T14:12:52;3.53;;;2.05;;
45208;SDS011;30951;43.994;26.260;2023-03-08T14:15:18;4.78;;;2.13;;
45208;SDS011;30951;43.994;26.260;2023-03-08T14:17:43;3.40;;;1.80;;
45208;SDS011;30951;43.994;26.260;2023-03-08T14:20:16;6.30;;;2.08;;
45208;SDS011;30951;43.994;26.260;2023-03-08T14:22:45;4.85;;;1.80;;
45208;SDS011;30951;43.994;26.260;2023-03-08T14:25:24;4.28;;;1.70;;
45208;SDS011;30951;43.994;26.260;2023-03-08T14:27:54;4.35;;;2.10;;
45208;SDS011;30951;43.994;26.260;2023-03-08T14:30:29;3.53;;;1.63;;
45208;SDS011;30951;43.994;26.260;2023-03-08T14:35:32;3.75;;;1.90;;
45208;SDS011;30951;43.994;26.260;2023-03-08T14:38:11;4.60;;;1.35;;
45208;SDS011;30951;43.994;26.260;2023-03-08T14:40:44;3.28;;;1.83;;
45208;SDS011;30951;43.994;26.260;2023-03-08T14:43:13;4.53;;;2.30;;
45208;SDS011;30951;43.994;26.260;2023-03-08T14:46:02;6.78;;;2.00;;
45208;SDS011;30951;43.994;26.260;2023-03-08T14:48:28;3.92;;;1.90;;
45208;SDS011;30951;43.994;26.260;2023-03-08T14:50:55;4.93;;;1.67;;
45208;SDS011;30951;43.994;26.260;2023-03-08T14:53:31;4.07;;;1.88;;
45208;SDS011;30951;43.994;26.260;2023-03-08T14:56:13;5.05;;;1.95;;
45208;SDS011;30951;43.994;26.260;2023-03-08T14:58:40;4.50;;;1.48;;
45208;SDS011;30951;43.994;26.260;2023-03-08T15:01:08;3.70;;;1.92;;
45208;SDS011;30951;43.994;26.260;2023-03-08T15:03:34;4.00;;;1.90;;
45208;SDS011;30951;43.994;26.260;2023-03-08T15:06:22;4.82;;;2.05;;
45208;SDS011;30951;43.994;26.260;2023-03-08T15:08:46;6.03;;;2.00;;
45208;SDS011;30951;43.994;26.260;2023-03-08T15:11:12;3.95;;;1.50;;
45208;SDS011;30951;43.994;26.260;2023-03-08T15:13:37;6.28;;;2.20;;
45208;SDS011;30951;43.994;26.260;2023-03-08T15:16:04;3.67;;;1.60;;
45208;SDS011;30951;43.994;26.260;2023-03-08T15:18:33;3.87;;;1.80;;
45208;SDS011;30951;43.994;26.260;2023-03-08T15:20:59;3.63;;;1.67;;
45208;SDS011;30951;43.994;26.260;2023-03-08T15:23:29;7.93;;;2.92;;
45208;SDS011;30951;43.994;26.260;2023-03-08T15:25:56;2.63;;;2.08;;
45208;SDS011;30951;43.994;26.260;2023-03-08T15:28:23;6.32;;;2.05;;
45208;SDS011;30951;43.994;26.260;2023-03-08T15:30:49;6.95;;;2.20;;
45208;SDS011;30951;43.994;26.260;2023-03-08T15:33:19;4.20;;;2.03;;
45208;SDS011;30951;43.994;26.260;2023-03-08T15:35:45;4.22;;;2.17;;
45208;SDS011;30951;43.994;26.260;2023-03-08T15:38:11;6.82;;;2.00;;
45208;SDS011;30951;43.994;26.260;2023-03-08T15:40:38;4.47;;;2.03;;
45208;SDS011;30951;43.994;26.260;2023-03-08T15:43:03;5.63;;;2.42;;
45208;SDS011;30951;43.994;26.260;2023-03-08T15:45:29;3.78;;;2.13;;
45208;SDS011;30951;43.994;26.260;2023-03-08T15:48:27;6.38;;;2.28;;
45208;SDS011;30951;43.994;26.260;2023-03-08T15:50:46;13.93;;;4.03;;
45208;SDS011;30951;43.994;26.260;2023-03-08T15:53:12;15.57;;;6.13;;
45208;SDS011;30951;43.994;26.260;2023-03-08T15:55:38;18.63;;;7.90;;
45208;SDS011;30951;43.994;26.260;2023-03-08T15:58:04;26.23;;;8.48;;
45208;SDS011;30951;43.994;26.260;2023-03-08T16:00:29;14.75;;;6.38;;